createdAt,value
2022-08-05T01:27:33.148Z,99921.00
2022-08-05T01:31:34.315Z,99918.40
2022-08-05T02:02:38.429Z,99909.00
2022-08-05T02:32:23.674Z,99887.20
2022-08-05T02:35:56.295Z,99882.20
2022-08-05T02:42:54.279Z,99884.00
2022-08-05T02:46:17.860Z,99881.80
2022-08-05T03:04:03.383Z,99873.00
2022-08-05T03:11:57.390Z,99870.40
2022-08-05T03:15:06.883Z,99868.40
2022-08-05T03:18:42.770Z,99865.60
2022-08-05T03:22:49.913Z,99859.20
2022-08-05T03:29:17.280Z,99863.60
2022-08-05T03:32:30.737Z,99861.80
2022-08-05T03:43:58.261Z,99859.80
2022-08-05T03:47:09.002Z,99856.20
2022-08-05T03:55:54.685Z,99855.40
2022-08-05T05:01:09.123Z,99850.00
2022-08-05T05:03:42.188Z,99848.40
2022-08-05T05:06:40.671Z,99850.20
2022-08-05T05:09:01.813Z,99852.60
2022-08-05T05:11:52.884Z,99847.00
2022-08-05T05:14:27.720Z,99851.60
2022-08-05T05:17:02.006Z,99850.20
2022-08-05T05:19:36.777Z,99849.40
2022-08-05T05:22:23.468Z,99852.20
2022-08-05T05:24:58.535Z,99853.80
2022-08-05T05:27:41.799Z,99856.40
2022-08-05T05:30:30.854Z,99856.00
2022-08-05T05:33:16.518Z,99851.60
2022-08-05T05:35:47.934Z,99854.80
2022-08-05T05:38:22.191Z,99856.00
2022-08-05T05:40:58.702Z,99861.40
2022-08-05T05:43:54.583Z,99861.20
2022-08-05T05:46:18.166Z,99859.00
2022-08-05T05:48:49.035Z,99859.00
2022-08-05T05:51:23.462Z,99856.80
2022-08-05T05:53:57.566Z,99856.40
2022-08-05T05:56:34.684Z,99859.80
2022-08-05T05:59:07.009Z,99854.40
2022-08-05T06:01:40.610Z,99857.80
2022-08-05T06:04:26.147Z,99857.60
2022-08-05T06:06:55.384Z,99858.20
2022-08-05T06:09:52.579Z,99854.00
2022-08-05T06:12:19.619Z,99855.00
2022-08-05T06:14:48.763Z,99858.60
2022-08-05T06:17:24.654Z,99857.60
2022-08-05T06:20:00.446Z,99862.20
2022-08-05T06:22:33.980Z,99859.80
2022-08-05T06:25:59.040Z,99862.80
2022-08-05T06:28:12.249Z,99860.00
2022-08-05T06:30:43.564Z,99856.20
2022-08-05T06:33:12.442Z,99856.40
2022-08-05T06:36:07.488Z,99854.60
2022-08-05T06:38:37.146Z,99854.60
2022-08-05T06:41:08.007Z,99857.00
2022-08-05T06:43:58.405Z,99858.40
2022-08-05T06:46:30.269Z,99859.00
2022-08-05T06:49:02.031Z,99852.80
2022-08-05T06:51:34.493Z,99850.80
2022-08-05T06:54:05.923Z,99854.20
2022-08-05T06:56:37.442Z,99855.00
2022-08-05T06:59:09.917Z,99853.00
2022-08-05T07:01:42.475Z,99851.00
2022-08-05T07:04:14.053Z,99847.80
2022-08-05T07:06:43.045Z,99850.00
2022-08-05T07:09:11.802Z,99851.00
2022-08-05T07:11:49.482Z,99847.60
2022-08-05T07:14:38.884Z,99846.00
2022-08-05T07:17:58.836Z,99840.60
2022-08-05T07:20:31.619Z,99834.60
2022-08-05T07:22:47.937Z,99835.60
2022-08-05T07:25:55.384Z,99835.60
2022-08-05T07:28:11.750Z,99835.00
2022-08-05T07:30:50.377Z,99833.20
2022-08-05T07:33:35.027Z,99832.40
2022-08-05T07:36:19.759Z,99833.60
2022-08-05T07:38:54.882Z,99835.60
2022-08-05T07:42:13.074Z,99831.80
2022-08-05T07:44:18.928Z,99829.60
2022-08-05T07:46:50.312Z,99832.20
2022-08-05T07:49:20.766Z,99833.40
2022-08-05T07:51:53.644Z,99833.00
2022-08-05T07:54:30.884Z,99835.20
2022-08-05T07:57:22.389Z,99837.20
2022-08-05T07:59:53.527Z,99838.80
2022-08-05T08:02:31.313Z,99835.00
2022-08-05T08:05:18.702Z,99835.80
2022-08-05T08:07:59.489Z,99837.40
2022-08-05T08:10:30.232Z,99836.20
2022-08-05T08:12:59.185Z,99831.60
2022-08-05T08:16:33.605Z,99828.80
2022-08-05T08:18:21.256Z,99827.80
2022-08-05T08:21:02.740Z,99821.80
2022-08-05T08:24:02.488Z,99823.60
2022-08-05T08:26:27.101Z,99823.00
2022-08-05T08:29:22.229Z,99819.00
2022-08-05T08:31:51.324Z,99826.40
2022-08-05T08:34:30.358Z,99825.80
2022-08-05T08:37:04.989Z,99827.40
2022-08-05T08:39:37.751Z,99817.40
2022-08-05T08:42:33.718Z,99823.20
2022-08-05T08:45:22.543Z,99823.40
2022-08-05T08:48:06.847Z,99822.80
2022-08-05T08:51:03.238Z,99826.00
2022-08-05T08:53:40.326Z,99819.20
2022-08-05T08:56:14.169Z,99823.00
2022-08-05T08:58:47.708Z,99820.60
2022-08-05T09:01:19.187Z,99811.80
2022-08-05T09:03:57.465Z,99823.00
2022-08-05T09:06:31.163Z,99817.00
2022-08-05T09:09:02.398Z,99823.20
2022-08-05T09:11:50.910Z,99821.00
2022-08-05T09:14:56.383Z,99821.20
2022-08-05T09:17:42.442Z,99820.00
2022-08-05T09:20:08.375Z,99819.60
2022-08-05T09:23:18.697Z,99814.00
2022-08-05T09:26:05.986Z,99819.40
2022-08-05T09:28:38.393Z,99821.20
2022-08-05T09:31:22.366Z,99823.00
2022-08-05T09:34:10.376Z,99817.80
2022-08-05T09:36:56.205Z,99813.80
2022-08-05T09:39:44.785Z,99809.20
2022-08-05T09:42:23.583Z,99809.20
2022-08-05T09:46:05.234Z,99809.20
2022-08-05T09:47:56.765Z,99811.60
2022-08-05T09:50:44.673Z,99811.40
2022-08-05T09:53:22.888Z,99812.60
2022-08-05T09:56:03.653Z,99814.00
2022-08-05T09:58:32.829Z,99810.60
2022-08-05T10:01:15.222Z,99815.60
2022-08-05T10:04:14.108Z,99806.20
2022-08-05T10:06:58.801Z,99803.20
2022-08-05T10:09:30.741Z,99804.40
2022-08-05T10:12:18.664Z,99805.00
2022-08-05T10:15:34.201Z,99803.00
2022-08-05T10:18:21.844Z,99799.80
2022-08-05T10:20:54.765Z,99801.40
2022-08-05T10:23:55.393Z,99794.00
2022-08-05T10:26:51.686Z,99792.00
2022-08-05T10:29:11.486Z,99792.80
2022-08-05T10:33:00.862Z,99791.40
2022-08-05T10:34:31.173Z,99790.40
2022-08-05T10:37:01.062Z,99784.80
2022-08-05T10:40:04.277Z,99780.20
2022-08-05T10:42:33.688Z,99775.60
2022-08-05T10:45:21.467Z,99777.20
2022-08-05T10:48:30.094Z,99777.00
2022-08-05T10:51:04.963Z,99780.00
2022-08-05T10:53:52.844Z,99778.20
2022-08-05T10:56:27.291Z,99781.40
2022-08-05T10:59:11.389Z,99776.00
2022-08-05T11:02:04.733Z,99774.40
2022-08-05T11:04:46.584Z,99775.40
2022-08-05T11:07:18.801Z,99772.20
2022-08-05T11:10:10.006Z,99770.60
2022-08-05T11:12:50.390Z,99772.80
2022-08-05T11:16:00.325Z,99776.20
2022-08-05T11:18:34.131Z,99774.40
2022-08-05T11:21:11.678Z,99765.00
2022-08-05T11:24:04.359Z,99763.60
2022-08-05T11:26:49.406Z,99769.20
2022-08-05T11:29:41.610Z,99771.00
2022-08-05T11:32:30.603Z,99774.80
2022-08-05T11:34:59.342Z,99769.60
2022-08-05T11:38:36.492Z,99772.40
2022-08-05T11:41:12.805Z,99767.80
2022-08-05T11:44:07.355Z,99766.40
2022-08-05T11:46:58.354Z,99769.20
2022-08-05T11:49:39.923Z,99771.80
2022-08-05T11:52:12.233Z,99772.40
2022-08-05T11:54:43.528Z,99774.00
2022-08-05T11:57:25.501Z,99777.60
2022-08-05T11:59:59.760Z,99776.80
2022-08-05T12:02:36.142Z,99775.40
2022-08-05T12:05:18.164Z,99766.00
2022-08-05T12:08:09.137Z,99758.80
2022-08-05T12:10:45.371Z,99757.40
2022-08-05T12:13:47.356Z,99758.00
2022-08-05T12:16:14.590Z,99754.80
2022-08-05T12:18:52.466Z,99762.60
2022-08-05T12:21:29.982Z,99760.80
2022-08-05T12:24:07.886Z,99758.80
2022-08-05T12:26:43.974Z,99753.60
2022-08-05T12:29:23.666Z,99752.40
2022-08-05T12:32:15.994Z,99752.60
2022-08-05T12:34:45.782Z,99749.40
2022-08-05T12:37:31.787Z,99747.40
2022-08-05T12:40:03.648Z,99744.00
2022-08-05T12:42:41.008Z,99747.20
2022-08-05T12:45:11.603Z,99744.20
2022-08-05T12:47:43.511Z,99742.60
2022-08-05T12:50:33.581Z,99741.80
2022-08-05T12:53:03.583Z,99740.20
2022-08-05T12:55:35.416Z,99733.60
2022-08-05T12:58:38.769Z,99737.80
2022-08-05T13:02:00.181Z,99726.60
2022-08-05T13:03:49.301Z,99731.60
2022-08-05T13:06:20.364Z,99731.80
2022-08-05T13:09:27.956Z,99723.00
2022-08-05T13:12:16.210Z,99724.60
2022-08-05T13:15:06.205Z,99721.20
2022-08-05T13:17:41.362Z,99722.80
2022-08-05T13:20:23.610Z,99721.40
2022-08-05T13:22:54.484Z,99723.20
2022-08-05T13:25:59.729Z,99714.60
2022-08-05T13:28:17.033Z,99722.60
2022-08-05T13:30:48.459Z,99717.60
2022-08-05T13:34:25.095Z,99718.40
2022-08-05T13:36:11.297Z,99718.20
2022-08-05T13:38:43.416Z,99717.00
2022-08-05T13:41:38.268Z,99716.00
2022-08-05T13:44:08.122Z,99717.80
2022-08-05T13:47:04.860Z,99719.20
2022-08-05T13:49:28.103Z,99719.60
2022-08-05T13:52:12.626Z,99716.60
2022-08-05T13:54:42.665Z,99720.00
2022-08-05T13:57:22.851Z,99719.20
2022-08-05T13:59:57.128Z,99718.00
2022-08-05T14:02:31.378Z,99719.40
2022-08-05T14:05:12.156Z,99712.60
2022-08-05T14:08:04.369Z,99717.20
2022-08-05T14:10:37.464Z,99717.40
2022-08-05T14:13:09.722Z,99712.80
2022-08-05T14:16:04.403Z,99713.20
2022-08-05T14:18:29.852Z,99704.00
2022-08-05T14:21:01.400Z,99702.20
2022-08-05T14:23:50.405Z,99699.60
2022-08-05T14:26:35.617Z,99697.40
2022-08-05T14:29:16.810Z,99699.80
2022-08-05T14:32:03.157Z,99704.00
2022-08-05T14:34:36.025Z,99705.80
2022-08-05T14:37:06.581Z,99700.00
2022-08-05T14:39:49.363Z,99704.60
2022-08-05T14:42:25.014Z,99703.60
2022-08-05T14:44:58.382Z,99709.00
2022-08-05T14:48:03.103Z,99702.80
2022-08-05T14:50:19.470Z,99700.80
2022-08-05T14:52:56.742Z,99697.60
2022-08-05T14:55:39.162Z,99689.80
2022-08-05T14:58:11.975Z,99684.20
2022-08-05T15:00:59.457Z,99681.00
2022-08-05T15:03:34.042Z,99681.00
2022-08-05T15:06:15.501Z,99681.20
2022-08-05T15:08:59.810Z,99684.00
2022-08-05T15:11:51.490Z,99685.00
2022-08-05T15:14:34.615Z,99685.00
2022-08-05T15:17:10.055Z,99681.60
2022-08-05T15:20:01.143Z,99681.20
2022-08-05T15:22:30.483Z,99676.80
2022-08-05T15:25:13.666Z,99671.40
2022-08-05T15:27:52.386Z,99673.40
2022-08-05T15:30:24.591Z,99672.40
2022-08-05T15:32:56.423Z,99674.00
2022-08-05T15:35:26.922Z,99672.80
2022-08-05T15:38:32.266Z,99670.20
2022-08-05T15:41:20.745Z,99668.60
2022-08-05T15:43:46.092Z,99668.40
2022-08-05T15:46:16.634Z,99661.80
2022-08-05T15:48:52.675Z,99652.80
2022-08-05T15:52:12.689Z,99655.00
2022-08-05T15:54:21.622Z,99656.60
2022-08-05T15:57:07.587Z,99654.60
2022-08-05T15:59:38.188Z,99658.00
2022-08-05T16:02:14.909Z,99663.80
2022-08-05T16:04:54.470Z,99667.40
2022-08-05T16:07:23.127Z,99663.80
2022-08-05T16:09:54.392Z,99661.40
2022-08-05T16:12:26.044Z,99656.60
2022-08-05T16:14:57.927Z,99657.80
2022-08-05T16:17:28.864Z,99655.80
2022-08-05T16:20:04.738Z,99654.00
2022-08-05T16:22:42.484Z,99653.80
2022-08-05T16:25:12.204Z,99655.00
2022-08-05T16:27:59.644Z,99653.80
2022-08-05T16:30:36.173Z,99658.60
2022-08-05T16:33:05.945Z,99659.00
2022-08-05T16:35:42.508Z,99661.00
2022-08-05T16:38:18.880Z,99661.00
2022-08-05T16:41:00.561Z,99659.60
2022-08-05T16:43:34.744Z,99661.80
2022-08-05T16:46:23.468Z,99661.80
2022-08-05T16:48:53.964Z,99655.80
2022-08-05T16:51:27.366Z,99659.40
2022-08-05T16:54:16.121Z,99661.60
2022-08-05T16:56:48.565Z,99656.80
2022-08-05T16:59:22.338Z,99661.20
2022-08-05T17:01:53.709Z,99666.60
2022-08-05T17:04:30.851Z,99666.20
2022-08-05T17:07:11.398Z,99663.00
2022-08-05T17:09:58.093Z,99663.40
2022-08-05T17:12:51.034Z,99669.80
2022-08-05T17:15:29.330Z,99671.20
2022-08-05T17:18:19.112Z,99670.60
2022-08-05T17:20:57.404Z,99677.80
2022-08-05T17:24:04.635Z,99680.00
2022-08-05T17:26:32.324Z,99683.20
2022-08-05T17:29:09.965Z,99680.00
2022-08-05T17:31:58.206Z,99681.80
2022-08-05T17:34:29.731Z,99686.00
2022-08-05T17:37:01.185Z,99689.40
2022-08-05T17:39:34.367Z,99690.80
2022-08-05T17:42:19.922Z,99687.40
2022-08-05T17:44:56.750Z,99693.60
2022-08-05T17:47:26.822Z,99697.00
2022-08-05T17:50:03.494Z,99703.60
2022-08-05T17:52:34.695Z,99708.00
2022-08-05T17:55:34.712Z,99708.60
2022-08-05T17:58:16.158Z,99719.20
2022-08-05T18:00:51.046Z,99719.00
2022-08-05T18:03:56.109Z,99734.80
2022-08-05T18:06:18.749Z,99734.20
2022-08-05T18:09:03.555Z,99737.60
2022-08-05T18:11:34.544Z,99739.00
2022-08-05T18:14:13.370Z,99750.60
2022-08-05T18:16:51.293Z,99755.40
2022-08-05T18:19:28.094Z,99758.80
2022-08-05T18:22:07.332Z,99766.20
2022-08-05T18:24:41.704Z,99773.40
2022-08-05T18:27:18.069Z,99777.40
2022-08-05T18:29:54.169Z,99782.80
2022-08-05T18:32:27.835Z,99785.80
2022-08-05T18:34:58.824Z,99782.40
2022-08-05T18:37:34.365Z,99786.80
2022-08-05T18:41:52.740Z,99795.00
2022-08-05T18:43:09.084Z,99803.60
2022-08-05T18:45:49.863Z,99805.20
2022-08-05T18:48:30.428Z,99808.00
2022-08-05T18:52:06.258Z,99820.00
2022-08-05T18:54:09.406Z,99835.00
2022-08-05T18:56:38.509Z,99834.40
2022-08-05T18:59:42.941Z,99830.80
2022-08-05T19:01:56.964Z,99829.60
2022-08-05T19:04:27.462Z,99839.00
2022-08-05T19:06:56.223Z,99853.40
2022-08-05T19:09:24.991Z,99841.60
2022-08-05T19:11:59.426Z,99841.60
2022-08-05T19:14:52.098Z,99845.80
2022-08-05T19:17:20.863Z,99854.20
2022-08-05T19:19:50.923Z,99862.60
2022-08-05T19:22:22.757Z,99873.00
2022-08-05T19:25:00.985Z,99883.40
2022-08-05T19:27:31.682Z,99883.20
2022-08-05T19:30:02.843Z,99887.00
2022-08-05T19:32:31.817Z,99887.60
2022-08-05T19:35:05.915Z,99889.60
2022-08-05T19:38:04.705Z,99892.80
2022-08-05T19:40:25.905Z,99897.40
2022-08-05T19:43:00.856Z,99897.20
2022-08-05T19:45:36.867Z,99899.60
2022-08-05T19:48:07.138Z,99905.80
2022-08-05T19:50:45.242Z,99907.00
2022-08-05T19:53:14.444Z,99906.20
2022-08-05T19:56:15.567Z,99899.60
2022-08-05T19:58:32.045Z,99900.40
2022-08-05T20:01:28.636Z,99904.20
2022-08-05T20:03:58.648Z,99917.00
2022-08-05T20:06:29.459Z,99915.40
2022-08-05T20:09:02.075Z,99918.80
2022-08-05T20:11:48.323Z,99927.40
2022-08-05T20:14:27.182Z,99926.80
2022-08-05T20:16:58.926Z,99927.40
2022-08-05T20:19:35.997Z,99924.60
2022-08-05T20:22:06.523Z,99924.60
2022-08-05T20:24:38.487Z,99921.00
2022-08-05T20:27:11.534Z,99929.20
2022-08-05T20:29:42.258Z,99938.40
2022-08-05T20:32:29.694Z,99946.20
2022-08-05T20:34:59.806Z,99940.60
2022-08-05T20:38:05.875Z,99946.60
2022-08-05T20:40:28.885Z,99954.80
2022-08-05T20:43:07.105Z,99961.60
2022-08-05T20:45:56.467Z,99959.20
2022-08-05T20:48:28.083Z,99958.40
2022-08-05T20:50:58.105Z,99960.20
2022-08-05T20:53:36.494Z,99965.80
2022-08-05T20:56:09.531Z,99972.40
2022-08-05T20:58:41.294Z,99977.60
2022-08-05T21:01:11.292Z,99974.20
2022-08-05T21:03:48.355Z,99977.80
2022-08-05T21:06:28.755Z,100001.20
2022-08-05T21:09:00.361Z,100010.80
2022-08-05T21:12:07.280Z,100022.40
2022-08-05T21:14:23.254Z,100038.60
2022-08-05T21:17:00.865Z,100061.00
2022-08-05T21:19:47.605Z,100073.60
2022-08-05T21:22:23.225Z,100083.80
2022-08-05T21:24:56.974Z,100093.00
2022-08-05T21:27:27.376Z,100105.20
2022-08-05T21:29:57.485Z,100117.20
2022-08-05T21:32:29.260Z,100103.80
2022-08-05T21:35:17.595Z,100098.60
2022-08-05T21:37:53.297Z,100095.00
2022-08-05T21:40:26.705Z,100087.60
2022-08-05T21:42:56.202Z,100082.80
2022-08-05T21:45:51.580Z,100085.00
2022-08-05T21:48:18.303Z,100085.80
2022-08-05T21:50:54.101Z,100076.60
2022-08-05T21:53:27.203Z,100055.40
2022-08-05T21:56:09.931Z,100052.40
2022-08-05T21:58:57.247Z,100056.60
2022-08-05T22:01:59.599Z,100059.20
2022-08-05T22:05:04.793Z,100055.80
2022-08-05T22:08:54.223Z,100056.00
2022-08-05T22:12:50.878Z,100053.00
2022-08-05T22:16:04.881Z,100056.60
2022-08-05T22:20:13.210Z,100068.20
2022-08-05T22:22:56.931Z,100065.20
2022-08-05T22:26:09.938Z,100070.80
2022-08-05T22:29:15.683Z,100075.00
2022-08-05T22:32:17.456Z,100088.60
2022-08-05T22:35:21.588Z,100096.00
2022-08-05T22:38:23.331Z,100091.80
2022-08-05T22:42:11.511Z,100098.00
2022-08-05T22:52:05.414Z,100112.80
2022-08-05T22:55:18.897Z,100107.40
2022-08-05T22:58:28.213Z,100109.40
2022-08-05T23:02:03.805Z,100119.40
2022-08-05T23:04:52.593Z,100118.60
2022-08-05T23:07:57.373Z,100117.00
2022-08-05T23:10:59.255Z,100117.60
2022-08-05T23:14:01.589Z,100121.00
2022-08-05T23:17:00.748Z,100131.20
2022-08-05T23:20:03.007Z,100128.20
2022-08-05T23:23:08.093Z,100126.80
2022-08-05T23:26:14.055Z,100132.80
2022-08-05T23:29:17.299Z,100143.20
2022-08-05T23:32:22.873Z,100142.40
2022-08-05T23:35:25.263Z,100138.60
2022-08-05T23:38:29.362Z,100136.40
2022-08-05T23:41:30.448Z,100143.00
2022-08-05T23:44:36.482Z,100159.40
2022-08-05T23:47:37.663Z,100166.80
2022-08-05T23:50:52.641Z,100172.20
2022-08-05T23:53:52.374Z,100171.80
2022-08-05T23:57:04.131Z,100181.20
